createdAt,value
2018-01-23T00:00:14.557Z,13.50
2018-01-23T00:01:21.320Z,16.90
2018-01-23T00:02:28.072Z,15.30
2018-01-23T00:03:35.055Z,12.60
2018-01-23T00:04:41.777Z,15.20
2018-01-23T00:05:48.746Z,14.30
2018-01-23T00:06:55.488Z,10.60
2018-01-23T00:08:02.236Z,19.90
2018-01-23T00:09:09.076Z,17.60
2018-01-23T00:10:16.159Z,14.70
2018-01-23T00:11:22.974Z,14.40
2018-01-23T00:12:29.764Z,14.20
2018-01-23T00:13:36.560Z,15.00
2018-01-23T00:14:43.387Z,15.40
2018-01-23T00:15:50.120Z,17.20
2018-01-23T00:16:56.847Z,17.70
2018-01-23T00:18:03.572Z,20.30
2018-01-23T00:19:10.466Z,17.50
2018-01-23T00:20:17.200Z,20.60
2018-01-23T00:21:23.967Z,14.80
2018-01-23T00:22:30.691Z,19.00
2018-01-23T00:23:37.387Z,17.50
2018-01-23T00:24:44.171Z,20.20
2018-01-23T00:25:50.892Z,15.10
2018-01-23T00:26:57.642Z,16.80
2018-01-23T00:28:04.364Z,15.10
2018-01-23T00:29:11.054Z,11.90
2018-01-23T00:30:17.736Z,13.80
2018-01-23T00:31:24.543Z,19.90
2018-01-23T00:32:31.268Z,17.10
2018-01-23T00:33:37.999Z,19.20
2018-01-23T00:34:44.711Z,15.10
2018-01-23T00:35:51.431Z,15.80
2018-01-23T00:36:58.160Z,15.50
2018-01-23T00:38:04.934Z,13.30
2018-01-23T00:39:11.661Z,15.50
2018-01-23T00:40:18.397Z,20.30
2018-01-23T00:41:25.147Z,16.00
2018-01-23T00:42:31.853Z,14.90
2018-01-23T00:43:38.687Z,17.40
2018-01-23T00:44:45.384Z,24.70
2018-01-23T00:45:52.116Z,22.40
2018-01-23T00:46:59.195Z,14.10
2018-01-23T00:48:05.947Z,13.70
2018-01-23T00:49:12.654Z,13.80
2018-01-23T00:50:19.363Z,12.10
2018-01-23T00:51:26.052Z,12.50
2018-01-23T00:52:32.847Z,12.60
2018-01-23T00:53:39.579Z,12.50
2018-01-23T00:54:46.286Z,15.10
2018-01-23T00:55:53.054Z,12.30
2018-01-23T00:56:59.898Z,11.20
2018-01-23T00:58:06.840Z,14.00
2018-01-23T00:59:13.564Z,9.90
2018-01-23T01:00:20.344Z,17.70
2018-01-23T01:01:27.319Z,17.40
2018-01-23T01:02:34.155Z,17.40
2018-01-23T01:03:40.904Z,13.10
2018-01-23T01:04:47.612Z,10.00
2018-01-23T01:05:54.356Z,12.30
2018-01-23T01:07:01.087Z,11.20
2018-01-23T01:08:07.878Z,13.60
2018-01-23T01:09:14.600Z,15.60
2018-01-23T01:10:21.317Z,14.40
2018-01-23T01:11:28.047Z,16.20
2018-01-23T01:12:34.761Z,17.70
2018-01-23T01:13:41.495Z,13.00
2018-01-23T01:14:48.239Z,13.20
2018-01-23T01:15:54.927Z,13.80
2018-01-23T01:17:01.667Z,13.50
2018-01-23T01:18:08.462Z,13.00
2018-01-23T01:19:15.159Z,15.00
2018-01-23T01:20:21.968Z,14.70
2018-01-23T01:21:28.691Z,15.40
2018-01-23T01:22:35.423Z,15.60
2018-01-23T01:23:42.140Z,14.20
2018-01-23T01:24:48.859Z,14.10
2018-01-23T01:25:55.656Z,15.10
2018-01-23T01:27:02.371Z,12.10
2018-01-23T01:28:09.110Z,13.90
2018-01-23T01:29:15.814Z,16.70
2018-01-23T01:30:22.531Z,12.70
2018-01-23T01:31:29.245Z,17.80
2018-01-23T01:32:35.991Z,12.90
2018-01-23T01:33:42.677Z,14.30
2018-01-23T01:34:49.384Z,11.70
2018-01-23T01:35:56.204Z,12.10
2018-01-23T01:37:02.880Z,16.20
2018-01-23T01:38:09.687Z,12.90
2018-01-23T01:39:16.387Z,17.40
2018-01-23T01:40:23.239Z,17.60
2018-01-23T01:41:29.955Z,15.10
2018-01-23T01:42:36.667Z,9.00
2018-01-23T01:43:43.438Z,11.30
2018-01-23T01:44:50.140Z,13.20
2018-01-23T01:45:56.835Z,12.30
2018-01-23T01:47:03.567Z,20.20
2018-01-23T01:48:10.308Z,17.40
2018-01-23T01:49:17.191Z,14.00
2018-01-23T01:50:23.999Z,15.80
2018-01-23T01:51:30.763Z,14.40
2018-01-23T01:52:37.630Z,12.20
2018-01-23T01:53:44.416Z,15.30
2018-01-23T01:54:51.169Z,12.60
2018-01-23T01:55:58.076Z,17.10
2018-01-23T01:57:04.879Z,14.10
2018-01-23T01:58:11.623Z,13.10
2018-01-23T01:59:18.496Z,14.80
2018-01-23T02:00:25.279Z,14.40
2018-01-23T02:01:32.083Z,15.40
2018-01-23T02:02:38.946Z,13.90
2018-01-23T02:03:45.723Z,12.90
2018-01-23T02:04:52.466Z,13.00
2018-01-23T02:05:59.220Z,13.60
2018-01-23T02:07:06.032Z,13.10
2018-01-23T02:08:12.788Z,15.50
2018-01-23T02:09:19.571Z,10.30
2018-01-23T02:10:26.481Z,14.10
2018-01-23T02:11:33.251Z,13.50
2018-01-23T02:12:40.015Z,11.90
2018-01-23T02:13:46.756Z,15.00
2018-01-23T02:14:53.543Z,12.30
2018-01-23T02:16:00.345Z,13.10
2018-01-23T02:17:07.132Z,12.80
2018-01-23T02:18:13.965Z,15.60
2018-01-23T02:19:20.715Z,13.70
2018-01-23T02:20:27.471Z,15.40
2018-01-23T02:21:34.252Z,13.90
2018-01-23T02:22:41.037Z,16.20
2018-01-23T02:23:47.783Z,15.20
2018-01-23T02:24:54.547Z,16.00
2018-01-23T02:26:01.320Z,12.40
2018-01-23T02:27:08.087Z,13.10
2018-01-23T02:28:14.927Z,11.90
2018-01-23T02:29:21.656Z,18.10
2018-01-23T02:30:28.508Z,14.50
2018-01-23T02:31:35.320Z,20.60
2018-01-23T02:32:42.059Z,23.80
2018-01-23T02:33:48.815Z,14.90
2018-01-23T02:34:55.603Z,13.50
2018-01-23T02:36:02.351Z,16.00
2018-01-23T02:37:09.147Z,23.40
2018-01-23T02:38:15.997Z,19.40
2018-01-23T02:39:22.775Z,18.50
2018-01-23T02:40:29.556Z,11.80
2018-01-23T02:41:36.334Z,17.40
2018-01-23T02:42:43.092Z,16.40
2018-01-23T02:43:55.012Z,30.80
2018-01-23T02:45:01.989Z,35.40
2018-01-23T02:46:08.885Z,27.70
2018-01-23T02:47:10.651Z,18.50
2018-01-23T02:48:17.429Z,19.10
2018-01-23T02:49:24.180Z,18.70
2018-01-23T02:50:31.043Z,19.60
2018-01-23T02:51:37.811Z,14.90
2018-01-23T02:52:44.584Z,21.20
2018-01-23T02:53:51.334Z,19.70
2018-01-23T02:54:58.131Z,23.40
2018-01-23T02:56:04.972Z,29.30
2018-01-23T02:57:11.780Z,28.80
2018-01-23T02:58:18.548Z,35.00
2018-01-23T02:59:25.288Z,36.20
2018-01-23T03:00:32.050Z,33.80
2018-01-23T03:01:38.811Z,26.80
2018-01-23T03:02:45.635Z,28.50
2018-01-23T03:03:52.394Z,25.00
2018-01-23T03:04:59.156Z,34.40
2018-01-23T03:06:05.911Z,55.70
2018-01-23T03:07:12.717Z,44.30
2018-01-23T03:08:19.491Z,38.80
2018-01-23T03:09:26.269Z,37.10
2018-01-23T03:10:33.087Z,32.80
2018-01-23T03:11:39.843Z,33.60
2018-01-23T03:12:46.635Z,56.80
2018-01-23T03:13:53.690Z,49.50
2018-01-23T03:15:00.483Z,30.20
2018-01-23T03:16:07.296Z,27.90
2018-01-23T03:17:14.092Z,26.00
2018-01-23T03:18:20.872Z,29.80
2018-01-23T03:19:27.615Z,25.30
2018-01-23T03:20:34.407Z,25.70
2018-01-23T03:21:41.184Z,25.70
2018-01-23T03:22:48.052Z,23.90
2018-01-23T03:23:54.891Z,19.50
2018-01-23T03:25:01.619Z,20.30
2018-01-23T03:26:08.434Z,20.30
2018-01-23T03:27:15.172Z,21.90
2018-01-23T03:28:21.950Z,17.50
2018-01-23T03:29:28.735Z,20.60
2018-01-23T03:30:35.553Z,18.10
2018-01-23T03:31:42.363Z,22.60
2018-01-23T03:32:49.095Z,18.80
2018-01-23T03:33:55.940Z,14.50
2018-01-23T03:35:02.691Z,18.20
2018-01-23T03:36:09.498Z,20.80
2018-01-23T03:37:16.359Z,13.80
2018-01-23T03:38:23.100Z,19.10
2018-01-23T03:39:29.903Z,19.80
2018-01-23T03:40:36.642Z,13.70
2018-01-23T03:41:43.429Z,17.80
2018-01-23T03:42:50.195Z,15.80
2018-01-23T03:43:56.988Z,21.00
2018-01-23T03:45:03.951Z,21.50
2018-01-23T03:46:10.729Z,16.10
2018-01-23T03:47:17.584Z,14.20
2018-01-23T03:48:24.327Z,13.20
2018-01-23T03:49:31.112Z,15.80
2018-01-23T03:50:37.983Z,16.00
2018-01-23T03:51:44.743Z,13.50
2018-01-23T03:52:51.519Z,16.60
2018-01-23T03:53:58.376Z,12.90
2018-01-23T03:55:05.138Z,12.80
2018-01-23T03:56:11.913Z,10.60
2018-01-23T03:57:18.778Z,8.60
2018-01-23T03:58:25.568Z,8.50
2018-01-23T03:59:32.364Z,13.30
2018-01-23T04:00:39.207Z,8.60
2018-01-23T04:01:45.994Z,10.90
2018-01-23T04:02:52.767Z,10.90
2018-01-23T04:03:59.603Z,9.90
2018-01-23T04:05:06.375Z,12.10
2018-01-23T04:06:13.147Z,9.30
2018-01-23T04:07:20.099Z,11.60
2018-01-23T04:08:26.864Z,12.00
2018-01-23T04:09:33.648Z,6.20
2018-01-23T04:10:40.483Z,12.70
2018-01-23T04:11:47.259Z,11.30
2018-01-23T04:12:54.063Z,9.00
2018-01-23T04:14:00.895Z,13.30
2018-01-23T04:15:07.671Z,11.10
2018-01-23T04:16:14.459Z,9.60
2018-01-23T04:17:21.311Z,10.40
2018-01-23T04:18:28.087Z,8.40
2018-01-23T04:19:34.873Z,9.80
2018-01-23T04:20:41.743Z,14.50
2018-01-23T04:21:48.524Z,14.10
2018-01-23T04:22:55.315Z,10.90
2018-01-23T04:24:02.160Z,12.00
2018-01-23T04:25:08.940Z,15.00
2018-01-23T04:26:15.755Z,13.00
2018-01-23T04:27:22.572Z,12.50
2018-01-23T04:28:29.371Z,11.70
2018-01-23T04:29:36.147Z,10.40
2018-01-23T04:30:43.364Z,10.90
2018-01-23T04:31:50.156Z,10.30
2018-01-23T04:32:56.935Z,8.70
2018-01-23T04:34:03.740Z,8.10
2018-01-23T04:35:10.569Z,9.90
2018-01-23T04:36:17.376Z,15.50
2018-01-23T04:37:24.172Z,14.40
2018-01-23T04:38:30.935Z,9.10
2018-01-23T04:39:37.708Z,8.50
2018-01-23T04:40:44.484Z,10.00
2018-01-23T04:41:51.350Z,7.50
2018-01-23T04:42:58.123Z,12.70
2018-01-23T04:44:04.917Z,14.30
2018-01-23T04:45:11.731Z,11.90
2018-01-23T04:46:18.512Z,12.20
2018-01-23T04:47:25.320Z,11.20
2018-01-23T04:48:32.139Z,11.00
2018-01-23T04:49:38.908Z,15.20
2018-01-23T04:50:45.672Z,15.00
2018-01-23T04:51:52.467Z,15.60
2018-01-23T04:52:59.266Z,11.80
2018-01-23T04:54:06.083Z,11.30
2018-01-23T04:55:12.866Z,9.90
2018-01-23T04:56:19.633Z,13.20
2018-01-23T04:57:26.435Z,10.90
2018-01-23T04:58:33.204Z,10.70
2018-01-23T04:59:40.051Z,11.60
2018-01-23T05:00:46.828Z,13.70
2018-01-23T05:01:53.590Z,17.10
2018-01-23T05:03:00.491Z,12.60
2018-01-23T05:04:07.259Z,11.90
2018-01-23T05:05:14.013Z,14.20
2018-01-23T05:06:20.903Z,16.40
2018-01-23T05:07:27.712Z,14.90
2018-01-23T05:08:34.487Z,14.10
2018-01-23T05:09:41.351Z,11.40
2018-01-23T05:10:48.120Z,10.60
2018-01-23T05:11:54.904Z,11.00
2018-01-23T05:13:01.795Z,12.40
2018-01-23T05:14:08.851Z,10.70
2018-01-23T05:15:15.609Z,9.80
2018-01-23T05:16:22.522Z,12.40
2018-01-23T05:17:29.339Z,12.40
2018-01-23T05:18:36.132Z,11.10
2018-01-23T05:19:42.876Z,11.60
2018-01-23T05:20:49.636Z,21.00
2018-01-23T05:21:56.410Z,15.30
2018-01-23T05:23:03.164Z,14.60
2018-01-23T05:24:09.983Z,12.80
2018-01-23T05:25:16.777Z,11.70
2018-01-23T05:26:23.525Z,13.50
2018-01-23T05:27:30.308Z,14.00
2018-01-23T05:28:37.076Z,14.90
2018-01-23T05:29:43.963Z,14.40
2018-01-23T05:30:50.743Z,12.70
2018-01-23T05:31:57.503Z,11.80
2018-01-23T05:33:04.360Z,9.30
2018-01-23T05:34:11.163Z,12.40
2018-01-23T05:35:17.928Z,14.90
2018-01-23T05:36:24.795Z,11.00
2018-01-23T05:37:31.578Z,17.20
2018-01-23T05:38:38.324Z,15.80
2018-01-23T05:39:45.120Z,12.50
2018-01-23T05:40:51.887Z,14.10
2018-01-23T05:41:58.665Z,10.00
2018-01-23T05:43:05.445Z,15.30
2018-01-23T05:44:12.191Z,15.90
2018-01-23T05:45:18.999Z,11.50
2018-01-23T05:46:25.789Z,14.00
2018-01-23T05:47:32.571Z,16.90
2018-01-23T05:48:39.423Z,16.30
2018-01-23T05:49:46.219Z,14.90
2018-01-23T05:50:53.020Z,10.70
2018-01-23T05:51:59.871Z,17.50
2018-01-23T05:53:06.633Z,12.50
2018-01-23T05:54:13.407Z,20.40
2018-01-23T05:55:20.332Z,15.00
2018-01-23T05:56:27.091Z,17.30
2018-01-23T05:57:33.904Z,21.60
2018-01-23T05:58:40.752Z,18.60
2018-01-23T05:59:47.615Z,18.40
2018-01-23T06:00:54.399Z,19.40
2018-01-23T06:02:01.179Z,18.70
2018-01-23T06:03:07.956Z,23.30
2018-01-23T06:04:14.731Z,22.00
2018-01-23T06:05:21.615Z,17.90
2018-01-23T06:06:28.431Z,18.90
2018-01-23T06:07:35.206Z,16.30
2018-01-23T06:08:42.043Z,15.10
2018-01-23T06:09:48.835Z,21.70
2018-01-23T06:10:55.615Z,17.80
2018-01-23T06:12:02.479Z,15.90
2018-01-23T06:13:09.252Z,18.50
2018-01-23T06:14:16.015Z,13.40
2018-01-23T06:15:22.786Z,20.00
2018-01-23T06:16:29.587Z,15.70
2018-01-23T06:17:36.370Z,17.40
2018-01-23T06:18:43.167Z,21.50
2018-01-23T06:19:50.016Z,14.40
2018-01-23T06:20:56.839Z,14.70
2018-01-23T06:22:03.655Z,22.60
2018-01-23T06:23:10.443Z,21.90
2018-01-23T06:24:17.196Z,23.10
2018-01-23T06:25:23.991Z,18.30
2018-01-23T06:26:30.774Z,23.40
2018-01-23T06:27:37.885Z,22.60
2018-01-23T06:28:44.663Z,18.70
2018-01-23T06:29:51.475Z,16.20
2018-01-23T06:30:58.244Z,18.00
2018-01-23T06:32:05.084Z,18.60
2018-01-23T06:33:11.889Z,26.10
2018-01-23T06:34:18.676Z,24.00
2018-01-23T06:35:25.832Z,20.90
2018-01-23T06:36:32.764Z,23.20
2018-01-23T06:37:39.575Z,20.70
2018-01-23T06:38:46.325Z,22.10
2018-01-23T06:39:53.093Z,19.60
2018-01-23T06:40:59.967Z,17.00
2018-01-23T06:42:06.727Z,19.20
2018-01-23T06:43:13.524Z,15.90
2018-01-23T06:44:20.310Z,16.00
2018-01-23T06:45:27.445Z,23.10
2018-01-23T06:46:34.296Z,21.00
2018-01-23T06:47:41.098Z,18.20
2018-01-23T06:48:47.860Z,29.60
2018-01-23T06:49:54.630Z,21.50
2018-01-23T06:51:01.500Z,27.30
2018-01-23T06:52:08.275Z,28.30
2018-01-23T06:53:15.035Z,22.10
2018-01-23T06:54:21.923Z,25.40
2018-01-23T06:55:28.691Z,16.70
2018-01-23T06:56:35.456Z,22.00
2018-01-23T06:57:42.354Z,22.40
2018-01-23T06:58:49.161Z,23.50
2018-01-23T06:59:55.903Z,21.70
2018-01-23T07:01:02.775Z,19.60
2018-01-23T07:02:09.548Z,25.30
2018-01-23T07:03:16.309Z,23.80
2018-01-23T07:04:23.215Z,28.10
2018-01-23T07:05:30.072Z,33.00
2018-01-23T07:06:36.852Z,26.30
2018-01-23T07:07:43.876Z,28.10
2018-01-23T07:08:50.636Z,31.40
2018-01-23T07:09:57.423Z,33.80
2018-01-23T07:11:04.444Z,39.60
2018-01-23T07:12:11.260Z,28.70
2018-01-23T07:13:18.011Z,31.30
2018-01-23T07:14:24.788Z,25.00
2018-01-23T07:15:31.586Z,28.80
2018-01-23T07:16:38.360Z,25.90
2018-01-23T07:17:45.146Z,26.40
2018-01-23T07:18:52.084Z,21.10
2018-01-23T07:19:58.887Z,20.80
2018-01-23T07:21:05.681Z,17.90
2018-01-23T07:22:12.436Z,21.70
2018-01-23T07:23:19.215Z,16.60
2018-01-23T07:24:25.971Z,20.80
2018-01-23T07:25:32.755Z,23.20
2018-01-23T07:26:39.599Z,18.50
2018-01-23T07:27:46.343Z,19.60
2018-01-23T07:28:53.467Z,19.00
2018-01-23T07:30:00.254Z,20.30
2018-01-23T07:31:07.140Z,14.80
2018-01-23T07:32:13.927Z,15.40
2018-01-23T07:33:20.700Z,16.80
2018-01-23T07:34:27.528Z,14.00
2018-01-23T07:35:34.327Z,20.50
2018-01-23T07:36:41.115Z,17.60
2018-01-23T07:37:48.005Z,20.60
2018-01-23T07:38:54.804Z,21.20
2018-01-23T07:40:01.567Z,23.40
2018-01-23T07:41:08.380Z,15.00
2018-01-23T07:42:15.124Z,16.00
2018-01-23T07:43:21.939Z,20.50
2018-01-23T07:44:28.847Z,23.00
2018-01-23T07:45:35.593Z,21.90
2018-01-23T07:46:42.393Z,19.50
2018-01-23T07:47:49.235Z,28.50
2018-01-23T07:48:56.011Z,21.50
2018-01-23T07:50:02.791Z,20.90
2018-01-23T07:51:09.648Z,21.00
2018-01-23T07:52:16.411Z,24.00
2018-01-23T07:53:23.207Z,18.50
2018-01-23T07:54:30.039Z,24.30
2018-01-23T07:55:36.807Z,19.70
2018-01-23T07:56:43.603Z,20.80
2018-01-23T07:57:50.463Z,23.30
2018-01-23T07:58:57.220Z,20.00
2018-01-23T08:00:03.983Z,19.50
2018-01-23T08:01:10.836Z,18.40
2018-01-23T08:02:17.615Z,26.80
2018-01-23T08:03:24.405Z,25.80
2018-01-23T08:04:31.315Z,27.20
2018-01-23T08:05:38.080Z,19.20
2018-01-23T08:06:44.887Z,31.10
2018-01-23T08:07:51.739Z,24.90
2018-01-23T08:08:58.604Z,17.70
2018-01-23T08:10:05.652Z,21.00
2018-01-23T08:11:12.477Z,20.80
2018-01-23T08:12:19.295Z,19.60
2018-01-23T08:13:26.052Z,20.30
2018-01-23T08:14:32.843Z,21.20
2018-01-23T08:15:39.705Z,20.80
2018-01-23T08:16:46.463Z,17.80
2018-01-23T08:17:53.313Z,20.40
2018-01-23T08:19:00.091Z,24.50
2018-01-23T08:20:07.116Z,22.90
2018-01-23T08:21:13.880Z,21.30
2018-01-23T08:22:20.668Z,25.70
2018-01-23T08:23:27.447Z,39.30
2018-01-23T08:24:34.279Z,26.40
2018-01-23T08:25:41.059Z,22.50
2018-01-23T08:26:47.843Z,30.30
2018-01-23T08:27:54.727Z,24.10
2018-01-23T08:29:01.500Z,24.80
2018-01-23T08:30:08.289Z,25.10
2018-01-23T08:31:15.110Z,23.00
2018-01-23T08:32:21.915Z,22.60
2018-01-23T08:33:28.663Z,22.60
2018-01-23T08:34:35.514Z,20.90
2018-01-23T08:35:42.304Z,23.10
2018-01-23T08:36:49.158Z,24.30
2018-01-23T08:37:56.196Z,20.00
2018-01-23T08:39:03.252Z,22.60
2018-01-23T08:40:09.943Z,22.50
2018-01-23T08:41:16.695Z,21.10
2018-01-23T08:42:23.524Z,16.20
2018-01-23T08:43:30.696Z,17.10
2018-01-23T08:44:37.045Z,15.40
2018-01-23T08:45:43.982Z,22.10
2018-01-23T08:46:50.784Z,19.60
2018-01-23T08:47:57.599Z,23.80
2018-01-23T08:49:04.460Z,16.00
2018-01-23T08:50:11.279Z,18.50
2018-01-23T08:51:18.243Z,17.70
2018-01-23T08:52:24.992Z,21.80
2018-01-23T08:53:31.759Z,18.40
2018-01-23T08:54:38.555Z,18.10
2018-01-23T08:55:45.287Z,18.60
2018-01-23T08:56:52.051Z,16.40
2018-01-23T08:57:58.795Z,15.40
2018-01-23T08:59:05.615Z,20.90
2018-01-23T09:00:12.360Z,18.20
2018-01-23T09:01:19.136Z,16.00
2018-01-23T09:02:25.862Z,19.80
2018-01-23T09:03:32.948Z,17.70
2018-01-23T09:04:39.804Z,19.20
2018-01-23T09:05:46.576Z,17.00
2018-01-23T09:06:53.433Z,20.20
2018-01-23T09:08:00.243Z,17.50
2018-01-23T09:09:07.076Z,18.20
2018-01-23T09:10:13.895Z,22.10
2018-01-23T09:11:20.692Z,16.40
2018-01-23T09:12:27.460Z,20.00
2018-01-23T09:13:34.259Z,20.30
2018-01-23T09:14:41.120Z,22.70
2018-01-23T09:15:47.875Z,19.60
2018-01-23T09:16:54.628Z,23.30
2018-01-23T09:18:01.528Z,19.30
2018-01-23T09:19:08.287Z,16.30
2018-01-23T09:20:15.060Z,18.50
2018-01-23T09:21:21.940Z,19.00
2018-01-23T09:22:28.771Z,21.70
2018-01-23T09:23:35.524Z,20.90
2018-01-23T09:24:42.383Z,19.50
2018-01-23T09:25:49.247Z,18.10
2018-01-23T09:26:56.033Z,14.50
2018-01-23T09:28:02.824Z,14.90
2018-01-23T09:29:09.576Z,17.00
2018-01-23T09:30:16.371Z,14.10
2018-01-23T09:31:23.407Z,15.00
2018-01-23T09:32:30.428Z,18.30
2018-01-23T09:33:37.219Z,16.50
2018-01-23T09:34:44.054Z,14.20
2018-01-23T09:35:50.856Z,22.00
2018-01-23T09:36:57.636Z,12.70
2018-01-23T09:38:04.579Z,16.40
2018-01-23T09:39:11.508Z,19.50
2018-01-23T09:40:18.409Z,15.80
2018-01-23T09:41:25.248Z,13.20
2018-01-23T09:42:32.373Z,17.40
2018-01-23T09:43:38.999Z,16.00
2018-01-23T09:44:45.920Z,15.50
2018-01-23T09:45:52.790Z,21.70
2018-01-23T09:47:00.117Z,13.40
2018-01-23T09:48:06.814Z,10.40
2018-01-23T09:49:13.671Z,18.90
2018-01-23T09:50:20.543Z,13.20
2018-01-23T09:51:27.408Z,15.40
2018-01-23T09:52:34.467Z,10.60
2018-01-23T09:53:41.051Z,16.00
2018-01-23T09:54:48.065Z,16.70
2018-01-23T09:55:55.123Z,12.60
2018-01-23T09:57:02.165Z,17.40
2018-01-23T09:58:09.032Z,13.40
2018-01-23T09:59:16.045Z,13.80
2018-01-23T10:00:22.876Z,14.90
2018-01-23T10:01:29.756Z,14.00
2018-01-23T10:02:36.695Z,13.40
2018-01-23T10:03:43.593Z,17.80
2018-01-23T10:04:50.384Z,13.00
2018-01-23T10:05:57.252Z,12.10
2018-01-23T10:07:04.055Z,15.60
2018-01-23T10:08:10.853Z,11.80
2018-01-23T10:09:17.689Z,12.50
2018-01-23T10:10:24.515Z,12.10
2018-01-23T10:11:31.316Z,12.30
2018-01-23T10:12:38.124Z,13.30
2018-01-23T10:13:44.911Z,12.10
2018-01-23T10:14:51.680Z,10.90
2018-01-23T10:15:58.561Z,11.50
2018-01-23T10:17:05.436Z,11.50
2018-01-23T10:18:12.339Z,11.40
2018-01-23T10:19:19.160Z,14.30
2018-01-23T10:20:25.979Z,11.30
2018-01-23T10:21:32.796Z,14.10
2018-01-23T10:22:39.600Z,9.90
2018-01-23T10:23:46.423Z,12.20
2018-01-23T10:24:53.552Z,12.80
2018-01-23T10:26:00.469Z,11.90
2018-01-23T10:27:07.231Z,12.40
2018-01-23T10:28:14.195Z,14.90
2018-01-23T10:29:20.956Z,14.20
2018-01-23T10:30:27.750Z,13.20
2018-01-23T10:31:34.580Z,18.80
2018-01-23T10:32:41.456Z,12.20
2018-01-23T10:33:48.361Z,17.60
2018-01-23T10:34:55.157Z,14.10
2018-01-23T10:36:01.998Z,11.20
2018-01-23T10:37:08.812Z,15.30
2018-01-23T10:38:15.600Z,17.50
2018-01-23T10:39:22.416Z,14.10
2018-01-23T10:40:30.224Z,10.20
2018-01-23T10:41:36.154Z,10.50
2018-01-23T10:42:43.022Z,16.50
2018-01-23T10:43:50.085Z,15.70
2018-01-23T10:44:56.576Z,11.70
2018-01-23T10:46:03.360Z,15.50
2018-01-23T10:47:10.151Z,12.50
2018-01-23T10:48:17.288Z,15.70
2018-01-23T10:49:24.232Z,16.40
2018-01-23T10:50:31.037Z,18.80
2018-01-23T10:51:37.860Z,15.20
2018-01-23T10:52:44.756Z,15.40
2018-01-23T10:53:51.636Z,14.10
2018-01-23T10:54:58.523Z,18.60
2018-01-23T10:56:05.323Z,16.30
2018-01-23T10:57:12.154Z,20.10
2018-01-23T10:58:18.991Z,15.80
2018-01-23T10:59:25.780Z,19.40
2018-01-23T11:00:32.588Z,17.50
2018-01-23T11:01:39.525Z,14.30
2018-01-23T11:02:46.593Z,16.40
2018-01-23T11:03:53.352Z,15.70
2018-01-23T11:05:00.136Z,15.20
2018-01-23T11:06:06.994Z,20.70
2018-01-23T11:07:13.840Z,16.60
2018-01-23T11:08:20.616Z,15.80
2018-01-23T11:09:27.420Z,18.80
2018-01-23T11:10:34.188Z,22.00
2018-01-23T11:11:40.980Z,14.10
2018-01-23T11:12:47.860Z,12.00
2018-01-23T11:13:54.764Z,15.00
2018-01-23T11:15:01.650Z,14.50
2018-01-23T11:16:08.512Z,14.20
2018-01-23T11:17:15.304Z,19.90
2018-01-23T11:18:22.186Z,18.60
2018-01-23T11:19:29.220Z,17.40
2018-01-23T11:20:36.006Z,15.80
2018-01-23T11:21:42.899Z,14.00
2018-01-23T11:22:49.775Z,14.20
2018-01-23T11:23:56.607Z,15.20
2018-01-23T11:25:03.595Z,14.70
2018-01-23T11:26:10.372Z,14.00
2018-01-23T11:27:17.219Z,19.80
2018-01-23T11:28:24.001Z,13.60
2018-01-23T11:29:30.825Z,16.10
2018-01-23T11:30:37.663Z,11.50
2018-01-23T11:31:44.435Z,16.50
2018-01-23T11:32:51.215Z,11.80
2018-01-23T11:33:58.091Z,14.10
2018-01-23T11:35:04.860Z,12.00
2018-01-23T11:36:11.768Z,14.40
2018-01-23T11:37:18.572Z,14.80
2018-01-23T11:38:25.460Z,10.40
2018-01-23T11:39:32.361Z,11.70
2018-01-23T11:40:39.227Z,15.40
2018-01-23T11:41:46.133Z,14.30
2018-01-23T11:42:52.965Z,11.50
2018-01-23T11:43:59.922Z,13.70
2018-01-23T11:45:06.762Z,17.00
2018-01-23T11:46:13.540Z,15.20
2018-01-23T11:47:20.393Z,17.00
2018-01-23T11:48:27.212Z,15.30
2018-01-23T11:49:34.000Z,15.50
2018-01-23T11:50:40.831Z,9.80
2018-01-23T11:51:47.577Z,16.30
2018-01-23T11:52:54.337Z,16.40
2018-01-23T11:54:01.665Z,15.90
2018-01-23T11:55:07.952Z,15.40
2018-01-23T11:56:14.758Z,11.60
2018-01-23T11:57:21.707Z,14.60
2018-01-23T11:58:28.755Z,15.60
2018-01-23T11:59:35.588Z,15.00
2018-01-23T12:00:42.395Z,13.60
2018-01-23T12:01:49.332Z,12.50
2018-01-23T12:02:56.140Z,13.80
2018-01-23T12:04:02.923Z,12.70
2018-01-23T12:05:09.804Z,14.80
2018-01-23T12:06:16.604Z,13.60
2018-01-23T12:07:23.372Z,10.90
2018-01-23T12:08:30.190Z,14.10
2018-01-23T12:09:37.031Z,13.00
2018-01-23T12:10:43.975Z,10.10
2018-01-23T12:11:50.750Z,9.10
2018-01-23T12:12:57.629Z,15.70
2018-01-23T12:14:04.411Z,11.20
2018-01-23T12:15:11.224Z,16.40
2018-01-23T12:16:18.000Z,14.60
2018-01-23T12:17:24.788Z,13.30
2018-01-23T12:18:31.604Z,14.90
2018-01-23T12:19:38.395Z,10.30
2018-01-23T12:20:45.244Z,11.10
2018-01-23T12:21:51.984Z,12.70
2018-01-23T12:22:58.763Z,12.40
2018-01-23T12:24:05.523Z,14.20
2018-01-23T12:25:12.420Z,11.60
2018-01-23T12:26:19.220Z,14.50
2018-01-23T12:27:25.971Z,11.80
2018-01-23T12:28:32.752Z,11.80
2018-01-23T12:29:39.570Z,15.60
2018-01-23T12:30:46.348Z,11.90
2018-01-23T12:31:53.209Z,11.40
2018-01-23T12:32:59.978Z,9.90
2018-01-23T12:34:06.816Z,14.20
2018-01-23T12:35:13.677Z,11.90
2018-01-23T12:36:20.487Z,13.80
2018-01-23T12:37:27.215Z,10.60
2018-01-23T12:38:34.056Z,9.80
2018-01-23T12:39:40.844Z,11.50
2018-01-23T12:40:47.613Z,11.30
2018-01-23T12:41:54.572Z,9.30
2018-01-23T12:43:01.397Z,10.30
2018-01-23T12:44:08.263Z,11.60
2018-01-23T12:45:15.176Z,15.10
2018-01-23T12:46:21.918Z,11.40
2018-01-23T12:47:28.759Z,10.60
2018-01-23T12:48:35.527Z,6.30
2018-01-23T12:49:42.291Z,9.90
2018-01-23T12:50:49.034Z,8.00
2018-01-23T12:51:55.901Z,9.70
2018-01-23T12:53:02.771Z,10.30
2018-01-23T12:54:09.621Z,8.50
2018-01-23T12:55:16.504Z,9.00
2018-01-23T12:56:23.286Z,10.20
2018-01-23T12:57:30.080Z,7.50
2018-01-23T12:58:36.869Z,8.70
2018-01-23T12:59:43.642Z,8.50
2018-01-23T13:00:50.496Z,10.30
2018-01-23T13:01:57.255Z,4.80
2018-01-23T13:03:04.063Z,9.20
2018-01-23T13:04:10.905Z,8.50
2018-01-23T13:05:17.660Z,3.90
2018-01-23T13:06:24.427Z,5.70
2018-01-23T13:07:31.544Z,7.90
2018-01-23T13:08:37.997Z,5.60
2018-01-23T13:09:44.759Z,8.10
2018-01-23T13:10:51.515Z,7.90
2018-01-23T13:11:58.271Z,8.60
2018-01-23T13:13:05.081Z,6.20
2018-01-23T13:14:11.815Z,4.20
2018-01-23T13:15:18.600Z,7.30
2018-01-23T13:16:25.348Z,4.60
2018-01-23T13:17:32.141Z,3.90
2018-01-23T13:18:38.900Z,6.90
2018-01-23T13:19:45.664Z,4.30
2018-01-23T13:20:52.424Z,7.00
2018-01-23T13:21:59.196Z,7.50
2018-01-23T13:23:05.949Z,4.90
2018-01-23T13:24:12.768Z,4.10
2018-01-23T13:25:19.617Z,6.20
2018-01-23T13:26:26.484Z,5.60
2018-01-23T13:27:33.548Z,9.20
2018-01-23T13:28:40.316Z,7.00
2018-01-23T13:29:47.184Z,7.80
2018-01-23T13:30:53.983Z,3.80
2018-01-23T13:32:00.743Z,3.80
2018-01-23T13:33:07.575Z,6.90
2018-01-23T13:34:14.304Z,5.10
2018-01-23T13:35:21.112Z,6.60
2018-01-23T13:36:27.859Z,4.70
2018-01-23T13:37:34.640Z,4.90
2018-01-23T13:38:41.392Z,5.60
2018-01-23T13:39:48.149Z,4.10
2018-01-23T13:40:54.884Z,5.00
2018-01-23T13:42:01.719Z,7.60
2018-01-23T13:43:08.463Z,4.10
2018-01-23T13:44:15.231Z,5.30
2018-01-23T13:45:22.011Z,3.60
2018-01-23T13:46:28.748Z,6.40
2018-01-23T13:47:35.518Z,7.50
2018-01-23T13:48:42.360Z,4.00
2018-01-23T13:49:49.175Z,6.00
2018-01-23T13:50:55.947Z,4.70
2018-01-23T13:52:02.688Z,8.20
2018-01-23T13:53:09.468Z,3.00
2018-01-23T13:54:16.335Z,4.60
2018-01-23T13:55:23.120Z,6.20
2018-01-23T13:56:29.885Z,6.60
2018-01-23T13:57:36.667Z,4.20
2018-01-23T13:58:43.395Z,7.40
2018-01-23T13:59:50.147Z,4.70
2018-01-23T14:00:56.931Z,5.60
2018-01-23T14:02:03.756Z,3.70
2018-01-23T14:03:10.550Z,6.30
2018-01-23T14:04:17.308Z,3.70
2018-01-23T14:05:24.059Z,4.90
2018-01-23T14:06:30.844Z,4.30
2018-01-23T14:07:37.599Z,7.80
2018-01-23T14:08:44.391Z,6.60
2018-01-23T14:09:51.536Z,3.80
2018-01-23T14:10:58.392Z,4.60
2018-01-23T14:12:05.231Z,11.20
2018-01-23T14:13:11.993Z,4.70
2018-01-23T14:14:18.792Z,7.60
2018-01-23T14:15:25.543Z,3.30
2018-01-23T14:16:32.324Z,4.20
2018-01-23T14:17:39.068Z,6.10
2018-01-23T14:18:45.835Z,9.80
2018-01-23T14:19:52.709Z,3.90
2018-01-23T14:20:59.495Z,4.20
2018-01-23T14:22:06.272Z,7.90
2018-01-23T14:23:13.055Z,4.30
2018-01-23T14:24:19.811Z,6.10